Time;durP1;ratioP1;P1;durP2;ratioP2;P2;SDS_P1;SDS_P2;PMS_P1;PMS_P2;Temp;Humidity;BMP_temperature;BMP_pressure;BME280_temperature;BME280_humidity;BME280_pressure;Samples;Min_cycle;Max_cycle;Signal;HPM_P1;HPM_P2
2021/06/15 00:00:46;;;;;;;13.63;1.27;;;;;;;14.39;48.79;101947.00;5011694;28;20038;-68
2021/06/15 00:03:12;;;;;;;13.88;1.05;;;;;;;14.32;48.85;101961.28;5009583;28;20033;-68
2021/06/15 00:05:37;;;;;;;6.75;1.52;;;;;;;14.29;48.94;101957.00;5011555;28;20026;-69
2021/06/15 00:08:04;;;;;;;10.20;0.77;;;;;;;14.29;49.01;101953.53;5009448;28;20482;-69
2021/06/15 00:10:33;;;;;;;10.25;0.70;;;;;;;14.27;49.18;101956.22;5010776;28;20026;-71
2021/06/15 00:13:01;;;;;;;11.85;0.73;;;;;;;14.22;48.82;101963.41;5007428;28;20052;-69
2021/06/15 00:15:27;;;;;;;12.38;0.85;;;;;;;14.05;49.12;101957.94;5010253;28;20052;-69
2021/06/15 00:17:53;;;;;;;11.25;1.02;;;;;;;14.02;49.31;101971.22;5010663;28;20033;-69
2021/06/15 00:20:20;;;;;;;9.80;1.42;;;;;;;14.15;48.89;101967.22;5010375;28;20041;-69
2021/06/15 00:22:46;;;;;;;5.22;0.73;;;;;;;14.08;49.26;101955.22;5009107;28;20398;-69
2021/06/15 00:25:13;;;;;;;5.43;1.00;;;;;;;14.07;48.67;101943.81;5010571;28;20105;-69
2021/06/15 00:27:41;;;;;;;9.07;0.73;;;;;;;14.18;48.57;101959.19;5008114;28;20045;-69
2021/06/15 00:30:09;;;;;;;11.18;0.57;;;;;;;14.17;48.29;101965.38;5007586;28;20057;-69
2021/06/15 00:32:35;;;;;;;6.93;0.52;;;;;;;14.15;47.97;101962.78;5007073;28;20044;-71
2021/06/15 00:35:02;;;;;;;6.25;0.70;;;;;;;14.12;48.36;101967.31;5011046;28;20030;-71
2021/06/15 00:37:27;;;;;;;6.05;0.63;;;;;;;13.95;48.34;101970.56;5010552;28;20033;-72
2021/06/15 00:39:53;;;;;;;6.53;0.77;;;;;;;14.01;48.52;101969.47;5009646;28;20030;-71
2021/06/15 00:42:18;;;;;;;7.07;0.65;;;;;;;13.70;49.20;101965.38;5008827;28;20045;-71
2021/06/15 00:44:44;;;;;;;4.25;0.73;;;;;;;13.65;49.45;101969.91;5008979;28;20065;-71
2021/06/15 00:47:12;;;;;;;8.80;1.00;;;;;;;13.78;49.08;101979.06;5009924;28;20041;-71
2021/06/15 00:49:39;;;;;;;2.20;0.63;;;;;;;13.77;49.25;101977.38;5010770;28;20037;-70
2021/06/15 00:52:07;;;;;;;13.65;1.40;;;;;;;13.61;49.79;101973.56;5008856;28;20084;-70
2021/06/15 00:54:33;;;;;;;6.75;0.40;;;;;;;13.73;49.34;101976.59;5007850;28;20471;-70
2021/06/15 00:57:01;;;;;;;9.52;0.70;;;;;;;13.78;49.12;101973.81;5011815;28;20060;-71
2021/06/15 00:59:27;;;;;;;6.78;1.02;;;;;;;13.80;48.98;101982.50;5008284;28;20671;-71
2021/06/15 01:01:53;;;;;;;6.82;0.40;;;;;;;13.88;48.67;101974.34;5007958;28;20112;-71
2021/06/15 01:04:22;;;;;;;4.45;0.75;;;;;;;13.83;48.59;101966.63;5008620;28;20134;-71
2021/06/15 01:07:04;;;;;;;7.75;0.63;;;;;;;13.76;49.01;101974.78;5010946;28;20136;-71
2021/06/15 01:09:52;;;;;;;10.20;0.60;;;;;;;13.64;48.75;101974.31;5024850;28;20026;-69
2021/06/15 01:12:23;;;;;;;7.45;0.65;;;;;;;13.53;49.18;101969.41;5025562;28;20042;-69
2021/06/15 01:15:00;;;;;;;8.57;1.67;;;;;;;13.49;49.02;101965.16;5012549;28;20267;-69
2021/06/15 01:17:47;;;;;;;6.07;0.45;;;;;;;13.70;48.71;101975.88;4997561;28;20557;-70
2021/06/15 01:20:37;;;;;;;7.63;0.50;;;;;;;13.43;48.79;101972.38;5012631;28;20629;-72
2021/06/15 01:23:28;;;;;;;9.63;1.23;;;;;;;13.61;48.23;101977.06;5014979;28;20117;-73
2021/06/15 01:26:08;;;;;;;9.23;0.90;;;;;;;13.50;48.67;101974.78;5015213;28;20038;-71
2021/06/15 01:28:45;;;;;;;9.55;0.55;;;;;;;13.40;48.74;101973.34;5010748;28;20514;-68
2021/06/15 01:31:16;;;;;;;14.75;1.17;;;;;;;13.58;48.42;101976.28;5010818;28;20037;-69
2021/06/15 01:33:48;;;;;;;4.38;1.50;;;;;;;13.45;48.46;101984.59;5014774;28;20117;-68
2021/06/15 01:36:18;;;;;;;3.75;0.90;;;;;;;13.43;48.44;101967.13;5011901;28;20030;-70
2021/06/15 01:38:51;;;;;;;3.80;0.55;;;;;;;13.49;48.46;101972.19;5015175;28;20201;-70
2021/06/15 01:41:26;;;;;;;2.75;0.63;;;;;;;13.48;47.97;101975.75;5012128;28;20034;-70
2021/06/15 01:43:56;;;;;;;7.10;0.68;;;;;;;13.60;47.89;101975.31;5015513;28;20029;-69
2021/06/15 01:46:25;;;;;;;11.30;1.30;;;;;;;13.71;47.30;101977.56;5011983;28;20040;-69
2021/06/15 01:49:02;;;;;;;11.48;0.70;;;;;;;13.62;47.52;101973.50;5011682;28;20400;-69
2021/06/15 01:51:32;;;;;;;7.97;0.93;;;;;;;13.59;47.96;101978.03;5014809;28;20175;-70
2021/06/15 01:54:11;;;;;;;9.00;0.77;;;;;;;13.52;48.42;101977.34;5013703;28;20030;-68
2021/06/15 01:56:46;;;;;;;5.47;0.50;;;;;;;13.72;47.59;101982.78;5014356;28;20044;-69
2021/06/15 01:59:16;;;;;;;5.88;0.75;;;;;;;13.63;47.59;101991.00;5008191;28;20068;-68
2021/06/15 02:01:49;;;;;;;4.95;0.85;;;;;;;13.62;48.10;101991.03;5009100;28;20040;-68
2021/06/15 02:04:22;;;;;;;6.95;0.55;;;;;;;13.39;48.39;101976.91;5010002;28;20422;-68
2021/06/15 02:06:51;;;;;;;10.05;0.95;;;;;;;13.36;48.62;101982.28;5014747;28;20144;-69
2021/06/15 02:09:20;;;;;;;4.03;1.02;;;;;;;13.65;47.59;101988.28;5028158;28;20077;-68
2021/06/15 02:11:47;;;;;;;5.47;0.70;;;;;;;13.44;48.11;101982.84;5012248;28;21379;-68
2021/06/15 02:14:34;;;;;;;11.73;1.45;;;;;;;13.44;48.74;101998.59;5012530;28;20028;-70
2021/06/15 02:17:24;;;;;;;10.25;0.55;;;;;;;13.68;47.73;101999.56;5026795;28;20093;-70
2021/06/15 02:20:15;;;;;;;7.78;1.00;;;;;;;13.77;47.52;102002.78;5017054;28;20045;-70
2021/06/15 02:22:49;;;;;;;8.50;0.50;;;;;;;13.34;48.67;102002.47;5010053;28;20030;-69
2021/06/15 02:25:25;;;;;;;5.53;1.17;;;;;;;13.79;47.72;101996.56;5025512;28;20072;-69
2021/06/15 02:27:53;;;;;;;6.55;0.50;;;;;;;13.62;47.93;102004.19;5012389;28;20068;-69
2021/06/15 02:30:21;;;;;;;8.05;0.60;;;;;;;13.60;47.11;101998.13;5012271;28;20531;-69
2021/06/15 02:32:55;;;;;;;21.10;2.10;;;;;;;13.49;47.60;101999.31;5028397;28;20034;-68
2021/06/15 02:35:25;;;;;;;5.43;0.70;;;;;;;13.72;47.68;102000.31;5027721;28;20033;-68
2021/06/15 02:38:00;;;;;;;8.20;0.68;;;;;;;13.66;47.39;102011.91;5011704;28;20545;-69
2021/06/15 02:40:27;;;;;;;7.63;0.82;;;;;;;13.79;47.33;102007.06;5014031;28;20082;-69
2021/06/15 02:42:56;;;;;;;9.48;0.77;;;;;;;13.82;47.09;102011.34;5012145;28;20038;-68
2021/06/15 02:45:27;;;;;;;3.72;0.93;;;;;;;13.72;47.09;102013.47;5011623;28;20560;-69
2021/06/15 02:47:55;;;;;;;6.68;0.80;;;;;;;13.85;46.92;102005.97;5011674;28;20025;-69
2021/06/15 02:50:25;;;;;;;8.00;0.95;;;;;;;13.79;46.79;102014.09;5011349;28;20038;-68
2021/06/15 02:53:14;;;;;;;11.98;0.80;;;;;;;13.69;47.57;102031.94;5011924;28;20113;-69
2021/06/15 02:55:47;;;;;;;7.95;0.60;;;;;;;13.75;47.12;102029.09;5013905;28;20029;-69
2021/06/15 02:58:13;;;;;;;5.00;0.90;;;;;;;13.72;47.40;102026.59;5027229;28;20038;-69
2021/06/15 03:00:39;;;;;;;6.15;0.55;;;;;;;13.76;47.37;102022.06;5012033;28;20063;-69
2021/06/15 03:03:06;;;;;;;6.32;0.50;;;;;;;13.67;47.19;102025.88;5007282;28;20037;-68
2021/06/15 03:05:33;;;;;;;10.80;1.10;;;;;;;13.68;47.38;102024.97;5008091;28;20025;-72
2021/06/15 03:07:59;;;;;;;7.15;0.57;;;;;;;13.67;47.57;102018.00;5015766;28;20336;-70
2021/06/15 03:10:26;;;;;;;7.35;0.73;;;;;;;13.58;47.96;102028.81;5011710;28;20026;-70
2021/06/15 03:13:03;;;;;;;15.45;1.10;;;;;;;13.64;48.10;102029.47;5010799;28;20090;-71
2021/06/15 03:15:45;;;;;;;4.22;0.60;;;;;;;13.62;47.96;102023.41;5029089;28;20029;-71
2021/06/15 03:18:22;;;;;;;5.45;0.30;;;;;;;13.53;48.12;102021.94;5011629;28;20037;-71
2021/06/15 03:20:51;;;;;;;7.28;0.40;;;;;;;13.66;47.79;102018.94;5013753;28;20029;-72
2021/06/15 03:23:47;;;;;;;4.10;0.85;;;;;;;13.49;47.96;102030.81;5030208;28;20049;-74
2021/06/15 03:26:21;;;;;;;10.55;0.60;;;;;;;13.60;47.70;102016.50;5014037;28;20033;-75
2021/06/15 03:28:53;;;;;;;5.57;0.60;;;;;;;13.57;47.83;102020.09;5012838;28;20029;-68
2021/06/15 03:31:19;;;;;;;;;;;;;;;13.65;47.88;102019.81;5026922;28;20083;-71
2021/06/15 03:33:50;;;;;;;8.40;0.80;;;;;;;13.61;47.68;102026.97;5012074;28;19924;-71
2021/06/15 03:36:18;;;;;;;8.57;0.50;;;;;;;13.63;47.39;102024.25;5007808;28;20067;-70
2021/06/15 03:38:47;;;;;;;5.63;0.75;;;;;;;13.58;48.15;102023.56;5010021;28;20036;-70
2021/06/15 03:41:15;;;;;;;9.60;0.80;;;;;;;13.63;48.13;102029.53;5010940;28;20417;-69
2021/06/15 03:44:03;;;;;;;9.23;0.85;;;;;;;13.62;47.81;102033.06;5008078;28;20093;-69
2021/06/15 03:46:31;;;;;;;6.60;0.95;;;;;;;13.50;48.52;102037.81;5024742;28;20117;-69
2021/06/15 03:48:59;;;;;;;14.77;1.02;;;;;;;13.57;48.12;102038.47;5010842;28;20528;-69
2021/06/15 03:51:47;;;;;;;7.72;0.90;;;;;;;13.61;48.21;102039.25;5009775;28;20168;-70
2021/06/15 03:54:14;;;;;;;12.10;1.15;;;;;;;13.69;48.17;102042.44;5010187;28;20037;-70
2021/06/15 03:56:43;;;;;;;4.80;0.40;;;;;;;13.60;48.27;102037.53;5014001;28;20379;-71
2021/06/15 03:59:12;;;;;;;8.65;0.43;;;;;;;13.43;48.46;102045.91;5008093;28;20049;-70
2021/06/15 04:01:42;;;;;;;8.43;1.10;;;;;;;13.69;47.98;102042.44;5010878;28;20098;-72
2021/06/15 04:04:10;;;;;;;3.20;1.05;;;;;;;13.73;47.53;102041.44;5012021;28;20069;-71
2021/06/15 04:06:41;;;;;;;13.60;1.38;;;;;;;13.79;48.02;102033.34;5011930;28;20095;-69
2021/06/15 04:09:10;;;;;;;6.53;1.45;;;;;;;13.81;47.73;102036.78;5012508;28;20438;-72
2021/06/15 04:11:40;;;;;;;8.45;0.70;;;;;;;13.90;47.09;102046.13;5012480;28;20033;-71
2021/06/15 04:14:09;;;;;;;8.63;0.60;;;;;;;13.99;47.41;102051.03;5013327;28;20070;-73
2021/06/15 04:16:36;;;;;;;5.47;0.60;;;;;;;14.09;46.93;102052.41;5013390;28;20033;-71
2021/06/15 04:19:06;;;;;;;6.32;0.57;;;;;;;14.09;46.71;102056.81;5013446;28;20056;-73
2021/06/15 04:21:35;;;;;;;14.02;0.70;;;;;;;14.02;47.05;102061.44;5013276;28;20128;-70
2021/06/15 04:24:03;;;;;;;9.65;1.08;;;;;;;14.03;47.03;102068.41;5012455;28;20509;-67
2021/06/15 04:26:34;;;;;;;16.65;1.25;;;;;;;14.24;46.77;102065.91;5010624;28;20065;-68
2021/06/15 04:29:03;;;;;;;6.65;0.77;;;;;;;14.13;46.55;102066.31;5011470;28;20038;-69
2021/06/15 04:31:30;;;;;;;11.05;1.17;;;;;;;14.15;46.38;102072.38;5010086;28;20025;-70
2021/06/15 04:34:01;;;;;;;13.63;1.05;;;;;;;14.40;46.17;102076.72;5011132;28;20061;-70
2021/06/15 04:36:29;;;;;;;9.85;1.48;;;;;;;14.42;45.61;102073.16;5008470;28;20061;-68
2021/06/15 04:38:59;;;;;;;7.97;0.80;;;;;;;14.39;45.67;102075.00;5011387;28;20033;-71
2021/06/15 04:41:52;;;;;;;3.53;0.43;;;;;;;14.60;45.44;102074.25;4997131;28;20391;-69
2021/06/15 04:44:40;;;;;;;8.30;1.15;;;;;;;14.76;45.21;102080.63;5006685;28;20129;-69
2021/06/15 04:47:14;;;;;;;8.15;1.00;;;;;;;14.76;44.50;102085.03;5009992;28;20069;-70
2021/06/15 04:50:00;;;;;;;14.68;0.88;;;;;;;14.75;43.98;102093.84;5012217;28;20036;-70
2021/06/15 04:52:27;;;;;;;8.40;0.90;;;;;;;14.87;44.49;102097.78;5010186;28;20069;-69
2021/06/15 04:54:56;;;;;;;7.82;0.95;;;;;;;14.93;44.67;102092.28;5010881;28;20402;-70
2021/06/15 04:57:32;;;;;;;6.93;0.63;;;;;;;15.07;44.01;102095.22;5008897;28;20033;-69
2021/06/15 05:00:01;;;;;;;8.93;0.82;;;;;;;15.01;44.64;102090.19;5014262;28;20037;-70
2021/06/15 05:02:30;;;;;;;10.07;0.60;;;;;;;15.26;44.11;102091.88;5013459;28;20079;-69
2021/06/15 05:04:56;;;;;;;9.60;0.85;;;;;;;15.17;43.79;102107.13;5014155;28;20292;-70
2021/06/15 05:07:23;;;;;;;6.70;0.73;;;;;;;15.22;43.71;102106.97;5013404;28;20037;-70
2021/06/15 05:09:51;;;;;;;5.38;0.80;;;;;;;14.94;44.61;102099.25;5015794;28;20033;-70
2021/06/15 05:12:19;;;;;;;6.95;0.32;;;;;;;14.91;44.58;102105.50;5013889;28;20048;-72
2021/06/15 05:14:45;;;;;;;4.53;0.63;;;;;;;14.97;44.38;102104.41;5013914;28;20056;-72
2021/06/15 05:17:13;;;;;;;7.32;0.57;;;;;;;15.17;44.21;102116.78;5013988;28;20093;-71
2021/06/15 05:19:40;;;;;;;5.43;0.93;;;;;;;14.96;44.18;102121.97;5012459;28;20503;-71
2021/06/15 05:22:28;;;;;;;6.45;1.02;;;;;;;15.27;43.71;102117.31;5015665;28;20129;-72
2021/06/15 05:24:56;;;;;;;3.80;0.52;;;;;;;15.19;43.56;102125.47;5015948;28;20426;-70
2021/06/15 05:27:27;;;;;;;5.15;1.27;;;;;;;15.46;43.34;102117.41;5014579;28;20122;-71
2021/06/15 05:29:53;;;;;;;6.50;0.90;;;;;;;15.41;42.66;102129.91;5016030;28;20380;-71
2021/06/15 05:32:19;;;;;;;6.65;0.65;;;;;;;15.78;42.23;102145.06;5016386;28;20111;-71
2021/06/15 05:34:45;;;;;;;9.90;0.80;;;;;;;15.85;42.57;102146.53;5016923;28;20037;-71
2021/06/15 05:37:12;;;;;;;8.85;0.65;;;;;;;15.92;41.65;102140.06;5016225;28;20029;-70
2021/06/15 05:39:39;;;;;;;8.02;0.77;;;;;;;15.84;41.81;102147.47;5011478;28;20033;-69
2021/06/15 05:42:05;;;;;;;6.30;0.50;;;;;;;15.78;42.24;102145.91;5013604;28;20641;-71
2021/06/15 05:44:31;;;;;;;12.45;1.55;;;;;;;16.10;41.56;102158.69;5014226;28;20029;-68
2021/06/15 05:46:57;;;;;;;13.45;1.25;;;;;;;16.47;40.16;102154.44;5014964;28;20112;-71
2021/06/15 05:49:23;;;;;;;9.15;1.05;;;;;;;16.42;39.53;102160.78;5013474;28;20041;-70
2021/06/15 05:52:03;;;;;;;9.20;2.70;;;;;;;16.88;38.62;102154.38;5014870;28;20026;-71
2021/06/15 05:54:29;;;;;;;8.00;0.50;;;;;;;18.52;35.05;102153.28;5013365;28;20603;-70
2021/06/15 05:56:55;;;;;;;8.95;0.77;;;;;;;18.85;34.12;102148.81;5014265;28;20030;-71
2021/06/15 05:59:21;;;;;;;4.85;1.05;;;;;;;18.97;33.36;102154.41;5011902;28;20041;-71
2021/06/15 06:01:47;;;;;;;5.82;0.63;;;;;;;20.53;31.04;102150.53;5014405;28;20038;-69
2021/06/15 06:04:14;;;;;;;9.45;0.68;;;;;;;21.09;30.18;102163.00;5011882;28;20061;-69
2021/06/15 06:09:24;;;;;;;5.63;0.40;;;;;;;23.26;27.04;102162.22;5013288;28;20033;-71
2021/06/15 06:11:50;;;;;;;7.97;1.13;;;;;;;24.04;25.54;102160.84;5013529;28;20092;-72
2021/06/15 06:14:16;;;;;;;3.83;0.57;;;;;;;25.28;24.10;102165.25;5013119;28;20120;-68
2021/06/15 06:16:43;;;;;;;5.22;0.77;;;;;;;25.81;23.61;102171.47;5012660;28;20034;-70
2021/06/15 06:19:11;;;;;;;3.90;0.43;;;;;;;26.58;22.54;102159.50;5014128;28;20098;-70
2021/06/15 06:21:37;;;;;;;6.03;0.88;;;;;;;26.62;22.21;102157.38;5031269;28;20083;-72
2021/06/15 06:24:05;;;;;;;6.10;0.38;;;;;;;27.40;21.71;102158.34;5014586;28;20056;-72
2021/06/15 06:26:31;;;;;;;8.65;0.68;;;;;;;25.43;22.21;102156.78;5011490;28;20124;-71
2021/06/15 06:28:57;;;;;;;6.38;0.57;;;;;;;25.09;22.97;102161.44;5013527;28;20135;-68
2021/06/15 06:31:22;;;;;;;6.53;0.40;;;;;;;23.83;24.87;102161.50;5008721;28;20509;-69
2021/06/15 06:33:48;;;;;;;5.88;0.50;;;;;;;23.27;25.51;102169.28;5014196;28;20037;-70
2021/06/15 06:36:16;;;;;;;5.18;0.50;;;;;;;23.77;24.97;102161.97;5011618;28;20049;-70
2021/06/15 06:38:48;;;;;;;1.73;0.30;;;;;;;23.49;24.50;102162.34;5013272;28;20025;-70
2021/06/15 06:41:17;;;;;;;3.95;0.30;;;;;;;23.21;25.90;102167.06;5011449;28;20038;-72
2021/06/15 06:43:43;;;;;;;3.60;0.45;;;;;;;24.33;23.76;102168.41;5015109;28;20029;-70
2021/06/15 06:46:08;;;;;;;2.97;0.70;;;;;;;24.37;24.30;102167.16;5008675;28;20137;-68
2021/06/15 06:48:34;;;;;;;1.33;0.45;;;;;;;23.47;25.45;102169.63;5012716;28;20349;-69
2021/06/15 06:50:59;;;;;;;3.45;0.55;;;;;;;24.90;23.70;102167.38;5010766;28;20034;-68
2021/06/15 06:53:27;;;;;;;3.13;0.45;;;;;;;24.74;23.57;102166.94;5010338;28;20354;-69
2021/06/15 06:55:53;;;;;;;7.18;0.45;;;;;;;24.93;23.15;102172.50;5000552;28;20054;-69
2021/06/15 06:58:18;;;;;;;5.25;0.88;;;;;;;25.14;22.53;102179.78;5013146;28;20045;-68
2021/06/15 07:00:44;;;;;;;8.57;0.70;;;;;;;23.74;24.71;102178.19;5013297;28;20061;-68
2021/06/15 07:03:09;;;;;;;4.88;0.57;;;;;;;22.79;26.62;102185.22;5011860;28;20034;-68
2021/06/15 07:05:35;;;;;;;7.45;0.70;;;;;;;25.02;23.94;102181.63;5010745;28;20657;-68
2021/06/15 07:08:01;;;;;;;5.05;0.77;;;;;;;22.15;26.65;102186.09;5010503;28;20491;-69
2021/06/15 07:10:26;;;;;;;8.23;0.82;;;;;;;20.52;29.85;102179.81;5012625;28;20168;-67
2021/06/15 07:12:52;;;;;;;5.70;0.55;;;;;;;18.86;32.48;102190.25;5011020;28;20034;-68
2021/06/15 07:15:18;;;;;;;4.32;0.40;;;;;;;18.08;34.45;102188.22;5014334;28;20030;-68
2021/06/15 07:17:43;;;;;;;5.10;0.40;;;;;;;17.96;34.33;102193.19;5013165;28;20029;-69
2021/06/15 07:20:10;;;;;;;3.63;0.57;;;;;;;20.43;31.24;102189.22;5006776;28;20037;-69
2021/06/15 07:22:36;;;;;;;8.45;0.60;;;;;;;24.43;24.86;102182.75;5007860;28;20049;-69
2021/06/15 07:25:03;;;;;;;5.07;1.10;;;;;;;25.70;22.89;102182.25;5009049;28;20110;-69
2021/06/15 07:27:29;;;;;;;7.00;0.93;;;;;;;26.16;21.95;102183.69;5012409;28;20025;-68
2021/06/15 07:29:54;;;;;;;7.65;0.50;;;;;;;26.73;21.59;102172.50;5009805;28;20501;-69
2021/06/15 07:32:23;;;;;;;7.55;1.00;;;;;;;26.37;21.78;102188.16;5004769;28;20364;-68
2021/06/15 07:34:49;;;;;;;5.00;0.38;;;;;;;25.85;21.51;102188.97;5011576;28;20042;-69
2021/06/15 07:37:17;;;;;;;6.07;0.60;;;;;;;23.24;26.05;102196.16;5010101;28;20038;-68
2021/06/15 07:39:43;;;;;;;5.50;0.50;;;;;;;21.56;28.33;102188.31;5011063;28;20036;-69
2021/06/15 07:42:09;;;;;;;7.07;0.68;;;;;;;22.02;28.47;102190.50;5009034;28;20041;-69
2021/06/15 07:44:34;;;;;;;7.47;0.70;;;;;;;25.00;23.36;102179.06;5009929;28;20045;-69
2021/06/15 07:47:01;;;;;;;5.05;0.85;;;;;;;27.69;21.18;102173.59;5012610;28;20042;-69
2021/06/15 07:49:28;;;;;;;6.75;0.80;;;;;;;27.60;19.53;102169.06;5022998;28;20026;-70
2021/06/15 07:51:54;;;;;;;4.97;0.70;;;;;;;28.60;19.28;102179.28;5011017;28;20048;-69
2021/06/15 07:54:19;;;;;;;7.32;1.27;;;;;;;28.63;18.59;102172.78;5008029;28;20489;-69
2021/06/15 07:56:45;;;;;;;5.82;0.50;;;;;;;29.82;18.77;102176.13;5008521;28;20049;-68
2021/06/15 07:59:10;;;;;;;4.15;0.55;;;;;;;30.61;16.45;102176.06;5011377;28;20041;-70
2021/06/15 08:01:36;;;;;;;9.02;0.68;;;;;;;29.92;17.48;102181.41;5003528;28;20536;-70
2021/06/15 08:04:01;;;;;;;3.38;0.28;;;;;;;29.30;18.06;102184.09;5010756;28;20103;-70
2021/06/15 08:06:30;;;;;;;6.38;0.65;;;;;;;28.64;18.38;102182.56;5006772;28;20041;-68
2021/06/15 08:08:55;;;;;;;4.70;0.30;;;;;;;28.52;18.36;102179.16;5007449;28;20370;-69
2021/06/15 08:11:21;;;;;;;3.55;0.30;;;;;;;27.86;18.57;102183.63;5008853;28;20066;-69
2021/06/15 08:13:46;;;;;;;2.72;0.57;;;;;;;28.82;17.23;102182.59;5009320;28;20053;-69
2021/06/15 08:16:12;;;;;;;7.30;0.65;;;;;;;29.01;16.86;102184.28;5008128;28;20097;-70
2021/06/15 08:18:38;;;;;;;3.88;0.50;;;;;;;29.23;16.82;102175.78;5008906;28;20034;-69
2021/06/15 08:21:04;;;;;;;5.15;0.85;;;;;;;29.61;15.74;102178.31;5007681;28;20091;-70
2021/06/15 08:23:30;;;;;;;7.70;0.65;;;;;;;29.50;16.07;102192.84;5007030;28;20053;-69
2021/06/15 08:25:56;;;;;;;4.65;0.40;;;;;;;28.71;16.75;102187.16;5006542;28;20128;-69
2021/06/15 08:28:22;;;;;;;2.80;0.30;;;;;;;29.07;16.48;102187.22;5006656;28;20041;-70
2021/06/15 08:30:48;;;;;;;3.55;0.32;;;;;;;29.86;16.30;102188.25;5005622;28;20117;-70
2021/06/15 08:33:15;;;;;;;3.28;0.52;;;;;;;29.46;16.19;102186.94;5008990;28;20133;-69
2021/06/15 08:35:40;;;;;;;2.15;0.40;;;;;;;29.46;16.48;102189.63;5010987;28;20037;-69
2021/06/15 08:38:08;;;;;;;3.05;0.32;;;;;;;29.70;16.00;102194.38;5012521;28;20033;-70
2021/06/15 08:40:34;;;;;;;7.10;0.40;;;;;;;29.96;15.62;102199.78;5008328;28;20036;-70
2021/06/15 08:43:00;;;;;;;9.65;0.80;;;;;;;29.14;16.74;102182.94;5010746;28;20041;-70
2021/06/15 08:45:26;;;;;;;3.85;0.50;;;;;;;29.09;16.35;102189.75;5009468;28;20060;-70
2021/06/15 08:47:53;;;;;;;4.60;0.32;;;;;;;29.45;16.64;102196.00;5007715;28;20052;-69
2021/06/15 08:50:22;;;;;;;4.47;0.20;;;;;;;29.84;16.57;102195.69;5007907;28;20030;-70
2021/06/15 08:52:50;;;;;;;5.68;0.60;;;;;;;29.80;17.17;102193.44;5016968;28;20042;-69
2021/06/15 08:55:17;;;;;;;3.22;0.30;;;;;;;29.42;16.70;102201.72;5010707;28;20311;-69
2021/06/15 08:57:52;;;;;;;2.75;0.38;;;;;;;28.08;17.98;102193.19;5012815;28;20558;-70
2021/06/15 09:00:18;;;;;;;6.47;0.73;;;;;;;26.27;20.50;102193.47;5009738;28;20148;-68
2021/06/15 09:02:51;;;;;;;1.75;0.30;;;;;;;25.45;20.91;102200.31;5008539;28;20053;-69
2021/06/15 09:05:20;;;;;;;3.70;0.40;;;;;;;25.20;21.41;102195.31;5009765;28;20034;-70
2021/06/15 09:07:58;;;;;;;4.07;0.55;;;;;;;24.93;22.21;102193.91;5008412;28;20037;-68
2021/06/15 09:10:33;;;;;;;5.30;0.70;;;;;;;23.51;23.30;102195.97;5009184;28;20533;-68
2021/06/15 09:12:59;;;;;;;4.03;0.50;;;;;;;24.70;21.34;102200.22;5007115;28;20041;-69
2021/06/15 09:15:25;;;;;;;3.85;0.75;;;;;;;25.15;20.87;102205.53;5010392;28;20040;-70
2021/06/15 09:17:53;;;;;;;2.53;0.30;;;;;;;26.29;20.36;102196.88;5010417;28;20355;-69
2021/06/15 09:20:24;;;;;;;4.97;0.65;;;;;;;26.55;20.36;102205.28;5007367;28;20041;-69
2021/06/15 09:23:04;;;;;;;6.90;0.40;;;;;;;27.13;20.33;102204.66;5008792;28;20577;-69
2021/06/15 09:25:30;;;;;;;4.43;0.98;;;;;;;25.16;21.29;102207.25;5009239;28;20482;-69
2021/06/15 09:27:57;;;;;;;4.28;0.43;;;;;;;24.71;22.52;102215.31;5010691;28;20125;-71
2021/06/15 09:30:26;;;;;;;4.93;0.32;;;;;;;24.94;22.14;102206.28;5006180;28;20042;-69
2021/06/15 09:32:52;;;;;;;6.72;0.65;;;;;;;23.06;24.14;102214.38;5013070;28;20033;-70
2021/06/15 09:35:32;;;;;;;5.97;0.47;;;;;;;22.43;25.81;102212.59;5006919;28;20057;-69
2021/06/15 09:38:00;;;;;;;4.40;0.40;;;;;;;23.14;25.28;102200.44;5024305;28;20501;-70
2021/06/15 09:40:28;;;;;;;3.60;0.65;;;;;;;23.48;24.56;102192.69;5010625;28;20045;-69
2021/06/15 09:43:09;;;;;;;2.53;0.55;;;;;;;23.20;24.32;102205.34;5010985;28;20573;-68
2021/06/15 09:45:42;;;;;;;8.55;0.40;;;;;;;22.18;24.60;102212.53;5004562;28;20145;-68
2021/06/15 09:48:30;;;;;;;1.45;0.20;;;;;;;21.69;26.65;102213.16;5009342;28;20041;-67
2021/06/15 09:51:11;;;;;;;6.70;0.55;;;;;;;22.69;25.23;102205.47;5008280;28;20057;-69
2021/06/15 09:53:48;;;;;;;3.55;0.30;;;;;;;23.27;23.66;102209.28;5007043;28;20034;-68
2021/06/15 09:56:15;;;;;;;2.38;0.75;;;;;;;23.33;23.86;102214.19;5011078;28;20103;-68
2021/06/15 09:58:42;;;;;;;6.20;0.98;;;;;;;24.10;23.55;102219.13;5009370;28;20053;-71
2021/06/15 10:01:09;;;;;;;5.57;0.40;;;;;;;24.32;22.30;102220.13;5013167;28;20049;-69
2021/06/15 10:03:38;;;;;;;3.88;0.30;;;;;;;23.72;22.03;102212.19;5009698;28;20026;-69
2021/06/15 10:06:04;;;;;;;9.32;0.52;;;;;;;24.04;23.79;102211.59;5010418;28;20507;-69
2021/06/15 10:08:44;;;;;;;1.90;0.50;;;;;;;24.13;22.23;102204.69;5010738;28;20665;-69
2021/06/15 10:11:10;;;;;;;3.53;0.40;;;;;;;23.43;22.37;102214.34;5008336;28;20029;-70
2021/06/15 10:13:37;;;;;;;6.47;0.50;;;;;;;23.79;23.15;102216.09;5007909;28;20116;-70
2021/06/15 10:16:03;;;;;;;3.78;0.50;;;;;;;23.52;22.54;102205.69;5005771;28;20417;-68
2021/06/15 10:18:29;;;;;;;4.10;0.30;;;;;;;24.06;21.39;102198.97;5004918;28;20033;-69
2021/06/15 10:20:55;;;;;;;4.05;0.28;;;;;;;22.71;22.72;102204.41;5008979;28;20034;-69
2021/06/15 10:23:21;;;;;;;4.25;0.20;;;;;;;23.23;21.86;102199.81;5006126;28;20142;-69
2021/06/15 10:25:47;;;;;;;1.65;0.30;;;;;;;23.56;24.01;102201.78;5007538;28;20038;-69
2021/06/15 10:28:13;;;;;;;7.00;0.65;;;;;;;24.11;22.81;102202.13;5008309;28;20038;-69
2021/06/15 10:30:42;;;;;;;4.18;0.40;;;;;;;23.79;22.52;102200.06;5007130;28;20037;-70
2021/06/15 10:33:20;;;;;;;5.10;0.30;;;;;;;23.46;22.07;102202.63;5006393;28;20052;-69
2021/06/15 10:35:51;;;;;;;4.93;0.35;;;;;;;23.62;23.66;102200.50;5004755;28;20721;-69
2021/06/15 10:38:40;;;;;;;3.53;0.50;;;;;;;22.94;22.83;102197.44;5024738;28;20045;-69
2021/06/15 10:41:07;;;;;;;3.10;0.30;;;;;;;23.55;22.48;102196.59;5003306;28;20038;-70
2021/06/15 10:43:35;;;;;;;2.83;0.40;;;;;;;23.47;22.01;102190.97;5006384;28;20432;-70
2021/06/15 10:46:04;;;;;;;5.18;0.40;;;;;;;23.75;21.80;102187.94;5005911;28;20041;-69
2021/06/15 10:48:32;;;;;;;4.15;0.77;;;;;;;23.40;23.12;102191.41;5005035;28;20352;-69
2021/06/15 10:51:01;;;;;;;3.25;0.47;;;;;;;22.53;23.75;102195.03;5007804;28;20046;-69
2021/06/15 10:53:35;;;;;;;5.53;0.70;;;;;;;21.11;25.25;102203.59;5005186;28;20060;-69
2021/06/15 10:56:04;;;;;;;5.88;0.43;;;;;;;21.91;24.20;102193.06;5010640;28;20371;-69
2021/06/15 10:58:36;;;;;;;4.80;0.43;;;;;;;22.94;23.07;102194.78;5005575;28;20049;-69
2021/06/15 11:01:16;;;;;;;0.73;0.20;;;;;;;23.12;23.66;102195.25;4997137;28;20037;-69
2021/06/15 11:03:45;;;;;;;1.23;0.23;;;;;;;23.34;23.03;102185.69;5001642;28;20056;-70
2021/06/15 11:06:11;;;;;;;2.00;0.28;;;;;;;23.21;23.07;102186.56;5009402;28;20304;-69
2021/06/15 11:08:37;;;;;;;3.95;1.17;;;;;;;23.13;23.15;102188.09;5007638;28;20057;-69
2021/06/15 11:11:15;;;;;;;1.33;0.32;;;;;;;22.65;23.34;102187.97;5000200;28;20096;-69
2021/06/15 11:13:53;;;;;;;9.45;0.85;;;;;;;23.50;23.57;102183.59;5008722;28;20528;-70
2021/06/15 11:16:40;;;;;;;7.13;0.50;;;;;;;22.67;24.08;102180.72;5007933;28;20051;-70
2021/06/15 11:19:08;;;;;;;4.78;0.35;;;;;;;22.82;24.49;102176.16;5008541;28;20052;-69
2021/06/15 11:21:56;;;;;;;7.78;0.35;;;;;;;23.19;23.37;102177.00;5004409;28;20037;-70
2021/06/15 11:24:37;;;;;;;1.52;0.30;;;;;;;22.59;24.49;102178.63;5009303;28;20045;-70
2021/06/15 11:27:23;;;;;;;1.60;0.22;;;;;;;22.49;25.21;102182.88;4980943;28;20038;-69
2021/06/15 11:29:51;;;;;;;3.45;0.32;;;;;;;22.44;25.59;102180.53;5006602;28;20422;-70
2021/06/15 11:32:26;;;;;;;4.05;0.40;;;;;;;22.65;24.60;102180.84;5006150;28;20045;-70
2021/06/15 11:35:04;;;;;;;4.00;0.40;;;;;;;22.60;24.12;102182.97;5006194;28;20022;-70
2021/06/15 11:37:37;;;;;;;3.25;0.20;;;;;;;23.77;22.62;102177.13;5007420;28;20064;-70
2021/06/15 11:40:12;;;;;;;2.33;0.20;;;;;;;24.20;22.61;102181.84;5006523;28;20402;-70